Time;durP1;ratioP1;P1;durP2;ratioP2;P2;SDS_P1;SDS_P2;PMS_P1;PMS_P2;Temp;Humidity;BMP_temperature;BMP_pressure;BME280_temperature;BME280_humidity;BME280_pressure;Samples;Min_cycle;Max_cycle;Signal;HPM_P1;HPM_P2
2022/02/21 00:01:11;;;;;;;1.90;1.10;;;8.90;99.90;;;;;;5073162;28;20230;-72
2022/02/21 00:03:40;;;;;;;1.70;1.05;;;8.90;99.90;;;;;;5073083;28;20205;-72
2022/02/21 00:06:06;;;;;;;2.00;1.27;;;8.90;99.90;;;;;;5073666;28;20220;-72
2022/02/21 00:08:33;;;;;;;1.48;1.33;;;8.90;99.90;;;;;;5072465;28;20208;-72
2022/02/21 00:11:01;;;;;;;1.75;1.58;;;8.90;99.90;;;;;;5071976;28;20208;-72
2022/02/21 00:13:29;;;;;;;5.95;1.38;;;9.00;99.90;;;;;;5071561;28;20201;-71
2022/02/21 00:15:55;;;;;;;1.65;1.15;;;9.00;99.90;;;;;;5071127;28;20247;-72
2022/02/21 00:18:22;;;;;;;4.97;1.50;;;9.00;99.90;;;;;;5071141;28;20223;-72
2022/02/21 00:20:52;;;;;;;1.60;1.10;;;9.00;99.90;;;;;;5071326;28;20586;-72
2022/02/21 00:23:19;;;;;;;2.20;1.20;;;9.00;99.90;;;;;;5074541;28;20204;-72
2022/02/21 00:25:46;;;;;;;1.60;1.23;;;9.10;99.90;;;;;;5076078;28;20220;-72
2022/02/21 00:28:13;;;;;;;2.90;1.40;;;9.10;99.90;;;;;;5075530;28;20545;-72
2022/02/21 00:30:40;;;;;;;2.65;1.38;;;9.20;99.90;;;;;;5074407;28;20196;-72
2022/02/21 00:33:07;;;;;;;4.00;1.38;;;9.20;99.90;;;;;;5073794;28;20200;-72
2022/02/21 00:35:34;;;;;;;4.15;1.38;;;9.20;99.90;;;;;;5073508;28;20710;-72
2022/02/21 00:38:03;;;;;;;2.17;1.17;;;9.20;99.90;;;;;;5073816;28;20200;-72
2022/02/21 00:40:29;;;;;;;2.00;1.33;;;9.20;99.90;;;;;;5072986;28;20197;-72
2022/02/21 00:42:56;;;;;;;2.97;1.40;;;9.20;99.90;;;;;;5071032;28;20197;-72
2022/02/21 00:45:23;;;;;;;2.00;1.10;;;9.20;99.90;;;;;;5071618;28;20224;-72
2022/02/21 00:47:49;;;;;;;2.97;1.73;;;9.20;99.90;;;;;;5070679;28;20204;-72
2022/02/21 00:50:16;;;;;;;3.08;1.95;;;9.10;99.90;;;;;;5071163;28;20193;-72
2022/02/21 00:52:43;;;;;;;2.55;1.40;;;9.00;99.90;;;;;;5070419;28;20618;-72
2022/02/21 00:55:11;;;;;;;3.78;1.25;;;9.00;99.90;;;;;;5071142;28;20224;-72
2022/02/21 00:57:38;;;;;;;4.40;2.08;;;9.00;99.90;;;;;;5071525;28;20197;-72
2022/02/21 01:00:06;;;;;;;5.22;1.77;;;8.90;99.90;;;;;;5071112;28;20228;-72
2022/02/21 01:02:33;;;;;;;3.25;1.33;;;8.90;99.90;;;;;;5070788;28;20204;-72
2022/02/21 01:05:00;;;;;;;3.17;1.70;;;8.90;99.90;;;;;;5070790;28;20256;-72
2022/02/21 01:07:26;;;;;;;1.98;1.40;;;8.90;99.90;;;;;;5071172;28;20674;-72
2022/02/21 01:09:53;;;;;;;1.73;1.23;;;8.90;99.90;;;;;;5070610;28;20220;-72
2022/02/21 01:12:21;;;;;;;2.00;1.30;;;8.80;99.90;;;;;;5070604;28;20208;-72
2022/02/21 01:14:48;;;;;;;2.17;1.35;;;8.70;99.90;;;;;;5070358;28;20220;-72
2022/02/21 01:17:15;;;;;;;2.20;1.33;;;8.70;99.90;;;;;;5071062;28;20200;-72
2022/02/21 01:19:41;;;;;;;5.70;1.63;;;8.70;99.90;;;;;;5071414;28;20702;-71
2022/02/21 01:22:08;;;;;;;4.28;1.80;;;8.60;99.90;;;;;;5074102;28;20626;-71
2022/02/21 01:24:35;;;;;;;3.13;1.50;;;8.60;99.90;;;;;;5076198;28;20248;-71
2022/02/21 01:27:02;;;;;;;4.32;1.60;;;8.60;99.90;;;;;;5077376;28;20204;-72
2022/02/21 01:29:30;;;;;;;4.70;1.80;;;8.60;99.90;;;;;;5077326;28;20193;-72
2022/02/21 01:31:57;;;;;;;2.55;1.60;;;8.60;99.90;;;;;;5075961;28;20208;-71
2022/02/21 01:34:24;;;;;;;2.53;1.35;;;8.50;99.90;;;;;;5073861;28;20216;-71
2022/02/21 01:36:52;;;;;;;2.90;1.50;;;8.50;99.90;;;;;;5074453;28;20228;-71
2022/02/21 01:39:18;;;;;;;3.97;1.50;;;8.50;99.90;;;;;;5073724;28;20221;-71
2022/02/21 01:41:45;;;;;;;2.92;1.55;;;8.50;99.90;;;;;;5074019;28;20205;-71
2022/02/21 01:44:14;;;;;;;2.20;1.50;;;8.50;99.90;;;;;;5073369;28;20223;-71
2022/02/21 01:46:43;;;;;;;4.20;1.45;;;8.50;99.90;;;;;;5073670;28;20219;-71
2022/02/21 01:49:11;;;;;;;2.45;1.70;;;8.50;99.90;;;;;;5074131;28;20226;-71
2022/02/21 01:51:38;;;;;;;2.13;1.50;;;8.50;99.90;;;;;;5073736;28;20205;-71
2022/02/21 01:54:07;;;;;;;2.22;1.20;;;8.50;99.90;;;;;;5073400;28;20224;-72
2022/02/21 01:56:35;;;;;;;2.20;1.05;;;8.50;99.90;;;;;;5073986;28;20200;-71
2022/02/21 01:59:02;;;;;;;1.30;1.20;;;8.50;99.90;;;;;;5073589;28;20252;-71
2022/02/21 02:01:29;;;;;;;3.10;1.10;;;8.60;99.90;;;;;;5073792;28;20209;-71
2022/02/21 02:04:00;;;;;;;1.80;1.30;;;8.50;99.90;;;;;;5072562;28;20204;-71
2022/02/21 02:06:28;;;;;;;3.55;1.45;;;8.60;99.90;;;;;;5073780;28;20238;-71
2022/02/21 02:08:54;;;;;;;2.28;1.27;;;8.60;99.90;;;;;;5073104;28;20196;-71
2022/02/21 02:11:21;;;;;;;3.22;1.40;;;8.60;99.90;;;;;;5073745;28;20645;-71
2022/02/21 02:13:50;;;;;;;2.05;1.30;;;8.60;99.90;;;;;;5078188;28;20200;-72
2022/02/21 02:16:17;;;;;;;5.18;1.40;;;8.60;99.90;;;;;;5076428;28;20204;-72
2022/02/21 02:18:44;;;;;;;1.17;1.08;;;8.60;99.90;;;;;;5076755;28;20254;-72
2022/02/21 02:21:17;;;;;;;1.63;1.10;;;8.60;99.90;;;;;;5076324;28;20204;-72
2022/02/21 02:23:45;;;;;;;2.80;1.05;;;8.60;99.90;;;;;;5075357;28;20200;-72
2022/02/21 02:26:12;;;;;;;2.90;1.10;;;8.60;99.90;;;;;;5074626;28;20204;-72
2022/02/21 02:28:38;;;;;;;2.50;1.10;;;8.60;99.90;;;;;;5074605;28;20681;-71
2022/02/21 02:31:05;;;;;;;3.22;1.20;;;8.60;99.90;;;;;;5075028;28;20254;-72
2022/02/21 02:33:33;;;;;;;0.90;0.80;;;8.50;99.90;;;;;;5072712;28;20625;-71
2022/02/21 02:36:00;;;;;;;2.95;1.00;;;8.50;99.90;;;;;;5075247;28;20744;-71
2022/02/21 02:38:27;;;;;;;1.30;1.05;;;8.50;99.90;;;;;;5074297;28;20235;-72
2022/02/21 02:40:56;;;;;;;5.35;1.20;;;8.50;99.90;;;;;;5074658;28;20224;-72
2022/02/21 02:43:22;;;;;;;2.05;1.20;;;8.50;99.90;;;;;;5073878;28;20205;-71
2022/02/21 02:45:50;;;;;;;2.70;1.25;;;8.50;99.90;;;;;;5073675;28;20227;-71
2022/02/21 02:48:17;;;;;;;1.40;1.05;;;8.40;99.90;;;;;;5074262;28;20205;-71
2022/02/21 02:50:43;;;;;;;3.15;1.35;;;8.40;99.90;;;;;;5073688;28;20205;-71
2022/02/21 02:53:10;;;;;;;3.67;1.25;;;8.40;99.90;;;;;;5073399;28;20238;-71
2022/02/21 02:55:37;;;;;;;3.00;1.27;;;8.40;99.90;;;;;;5072844;28;20744;-71
2022/02/21 02:58:05;;;;;;;3.35;1.10;;;8.30;99.90;;;;;;5073819;28;20204;-72
2022/02/21 03:00:31;;;;;;;2.10;1.20;;;8.30;99.90;;;;;;5072934;28;20641;-72
2022/02/21 03:02:58;;;;;;;1.75;1.23;;;8.30;99.90;;;;;;5072328;28;20200;-72
2022/02/21 03:05:25;;;;;;;1.10;0.93;;;8.30;99.90;;;;;;5072780;28;20223;-72
2022/02/21 03:07:51;;;;;;;2.38;1.30;;;8.40;99.90;;;;;;5071590;28;20215;-71
2022/02/21 03:10:19;;;;;;;1.77;0.93;;;8.40;99.90;;;;;;5072539;28;20192;-72
2022/02/21 03:12:45;;;;;;;4.30;1.48;;;8.40;99.90;;;;;;5070849;28;20215;-72
2022/02/21 03:15:13;;;;;;;1.85;1.10;;;8.50;99.90;;;;;;5072497;28;20220;-72
2022/02/21 03:17:40;;;;;;;3.53;1.20;;;8.50;99.90;;;;;;5072013;28;20204;-72
2022/02/21 03:20:09;;;;;;;2.00;1.20;;;8.60;99.90;;;;;;5072127;28;20231;-71
2022/02/21 03:22:36;;;;;;;2.15;2.00;;;8.60;99.90;;;;;;5071321;28;20200;-72
2022/02/21 03:25:03;;;;;;;4.32;1.20;;;8.60;99.90;;;;;;5067892;28;20224;-72
2022/02/21 03:27:29;;;;;;;3.50;1.05;;;8.50;99.90;;;;;;5070634;28;20200;-71
2022/02/21 03:29:56;;;;;;;3.45;0.93;;;8.50;99.90;;;;;;5071275;28;20200;-72
2022/02/21 03:32:24;;;;;;;1.40;1.00;;;8.50;99.90;;;;;;5072192;28;20215;-70
2022/02/21 03:34:51;;;;;;;1.00;0.80;;;8.50;99.90;;;;;;5072066;28;20259;-71
2022/02/21 03:37:18;;;;;;;3.08;1.10;;;8.50;99.90;;;;;;5071828;28;20208;-70
2022/02/21 03:39:45;;;;;;;1.73;1.35;;;8.40;99.90;;;;;;5071800;28;20219;-70
2022/02/21 03:42:11;;;;;;;1.73;1.40;;;8.30;99.90;;;;;;5071830;28;20204;-71
2022/02/21 03:44:38;;;;;;;2.60;1.50;;;8.10;99.90;;;;;;5075101;28;20228;-70
2022/02/21 03:47:05;;;;;;;1.05;0.95;;;8.10;99.90;;;;;;5077310;28;20208;-71
2022/02/21 03:49:33;;;;;;;3.38;1.20;;;8.00;99.90;;;;;;5073559;28;20200;-72
2022/02/21 03:52:00;;;;;;;1.40;1.20;;;7.90;99.90;;;;;;5073612;28;20207;-72
2022/02/21 03:54:27;;;;;;;1.52;1.00;;;7.60;99.90;;;;;;5072178;28;20250;-72
2022/02/21 03:56:53;;;;;;;0.80;0.70;;;7.00;99.90;;;;;;5072827;28;20246;-72
2022/02/21 03:59:20;;;;;;;1.30;0.90;;;6.60;99.90;;;;;;5072603;28;20220;-71
2022/02/21 04:01:47;;;;;;;1.13;0.70;;;6.20;99.90;;;;;;5072989;28;20204;-72
2022/02/21 04:04:13;;;;;;;1.60;0.90;;;5.80;99.90;;;;;;5072447;28;20228;-72
2022/02/21 04:06:42;;;;;;;3.42;1.10;;;5.30;99.90;;;;;;5071453;28;20204;-72
2022/02/21 04:09:08;;;;;;;1.60;0.70;;;5.00;99.90;;;;;;5071841;28;20204;-72
2022/02/21 04:11:35;;;;;;;1.85;1.00;;;4.50;99.90;;;;;;5071020;28;20809;-71
2022/02/21 04:14:02;;;;;;;1.80;0.80;;;4.30;99.90;;;;;;5070805;28;20196;-71
2022/02/21 04:16:32;;;;;;;1.40;0.90;;;4.10;99.90;;;;;;5070863;28;20201;-71
2022/02/21 04:18:59;;;;;;;1.10;0.80;;;3.90;99.90;;;;;;5071235;28;20215;-72
2022/02/21 04:21:25;;;;;;;2.08;1.20;;;3.60;99.90;;;;;;5071102;28;20231;-72
2022/02/21 04:23:53;;;;;;;3.17;1.13;;;3.50;99.90;;;;;;5070155;28;20212;-72
2022/02/21 04:26:20;;;;;;;3.25;1.00;;;3.30;99.90;;;;;;5071153;28;20212;-72
2022/02/21 04:28:47;;;;;;;2.70;0.95;;;3.30;99.90;;;;;;5069923;28;20204;-71
2022/02/21 04:31:17;;;;;;;1.70;1.10;;;3.20;99.90;;;;;;5070754;28;20197;-71
2022/02/21 04:33:44;;;;;;;1.63;1.30;;;3.10;99.90;;;;;;5068850;28;20205;-71
2022/02/21 04:36:11;;;;;;;3.50;1.35;;;3.10;99.90;;;;;;5060948;28;20216;-72
2022/02/21 04:38:38;;;;;;;2.72;1.48;;;3.00;99.90;;;;;;5060333;28;20656;-72
2022/02/21 04:41:06;;;;;;;4.68;1.38;;;3.00;99.90;;;;;;5059120;28;20224;-72
2022/02/21 04:43:32;;;;;;;4.88;1.30;;;3.00;99.90;;;;;;5060146;28;20196;-72
2022/02/21 04:45:59;;;;;;;3.53;1.38;;;3.00;99.90;;;;;;5057671;28;20223;-71
2022/02/21 04:48:27;;;;;;;3.72;1.50;;;3.00;99.90;;;;;;5061277;28;20310;-71
2022/02/21 04:50:55;;;;;;;9.07;2.08;;;3.00;99.90;;;;;;5059411;28;20200;-72
2022/02/21 04:53:22;;;;;;;3.05;1.50;;;3.00;99.90;;;;;;5058620;28;20242;-72
2022/02/21 04:55:50;;;;;;;1.83;1.05;;;3.00;99.90;;;;;;5054120;28;20239;-72
2022/02/21 04:58:18;;;;;;;5.55;1.45;;;3.00;99.90;;;;;;5061169;28;20196;-72
2022/02/21 05:00:45;;;;;;;2.70;1.40;;;3.00;99.90;;;;;;5067020;28;20267;-72
2022/02/21 05:03:11;;;;;;;2.65;1.48;;;3.10;99.90;;;;;;5060811;28;20194;-72
2022/02/21 05:05:38;;;;;;;2.20;1.45;;;3.10;99.90;;;;;;5062714;28;20212;-72
2022/02/21 05:08:05;;;;;;;5.10;1.73;;;3.10;99.90;;;;;;5062897;28;20695;-72
2022/02/21 05:10:32;;;;;;;4.60;1.27;;;3.10;99.90;;;;;;5060874;28;20585;-70
2022/02/21 05:12:59;;;;;;;5.30;1.80;;;3.10;99.90;;;;;;5104182;22;20235;-93
2022/02/21 05:15:27;;;;;;;5.88;1.75;;;3.20;99.90;;;;;;5096576;28;20196;-92
2022/02/21 05:17:55;;;;;;;3.47;1.40;;;3.30;99.90;;;;;;5093165;28;20200;-93
2022/02/21 05:20:24;;;;;;;2.47;1.38;;;3.30;99.90;;;;;;5101876;28;20291;-94
2022/02/21 05:22:51;;;;;;;4.20;1.75;;;3.40;99.90;;;;;;5070786;28;20228;-93
2022/02/21 05:25:55;;;;;;;3.95;1.80;;;3.40;99.90;;;;;;5073694;28;20199;-91
2022/02/21 05:28:21;;;;;;;3.70;1.80;;;3.50;99.90;;;;;;5066266;28;20197;-91
2022/02/21 05:30:50;;;;;;;6.40;2.00;;;3.60;99.90;;;;;;5064902;28;20511;-92
2022/02/21 05:33:16;;;;;;;6.13;2.67;;;3.60;99.90;;;;;;5061319;28;20236;-91
2022/02/21 05:35:43;;;;;;;6.13;2.10;;;3.70;99.90;;;;;;5062357;28;20220;-90
2022/02/21 05:38:11;;;;;;;5.13;2.65;;;3.70;99.90;;;;;;5067101;28;20638;-91
2022/02/21 05:40:38;;;;;;;6.85;2.05;;;3.80;99.90;;;;;;5061667;28;20220;-91
2022/02/21 05:46:37;;;;;;;5.70;2.03;;;3.80;99.90;;;;;;5020850;28;20225;-89
2022/02/21 05:49:04;;;;;;;4.13;1.90;;;3.80;99.90;;;;;;5040742;28;20201;-91
2022/02/21 05:51:31;;;;;;;7.82;2.55;;;3.80;99.90;;;;;;5066677;28;20579;-91
2022/02/21 05:53:58;;;;;;;3.67;1.65;;;3.90;99.90;;;;;;5063657;28;20201;-92
2022/02/21 05:56:25;;;;;;;6.88;2.45;;;3.90;99.90;;;;;;5065436;28;20192;-91
2022/02/21 05:58:52;;;;;;;4.68;1.75;;;4.00;99.90;;;;;;5055994;28;20215;-92
2022/02/21 06:01:19;;;;;;;10.73;2.45;;;4.00;99.90;;;;;;5055013;28;20228;-91
2022/02/21 06:03:56;;;;;;;6.80;2.47;;;4.00;99.90;;;;;;5057648;28;20204;-91
2022/02/21 06:06:23;;;;;;;4.80;2.40;;;4.00;99.90;;;;;;5060061;28;20239;-91
2022/02/21 06:08:50;;;;;;;10.70;2.53;;;4.10;99.90;;;;;;5056456;28;20209;-93
2022/02/21 06:11:16;;;;;;;3.65;2.08;;;4.00;99.90;;;;;;5056207;28;20205;-91
2022/02/21 06:13:43;;;;;;;6.38;2.35;;;4.10;99.90;;;;;;5058457;28;20219;-89
2022/02/21 06:16:10;;;;;;;4.75;2.22;;;4.20;99.90;;;;;;5057015;28;20216;-91
2022/02/21 06:18:37;;;;;;;5.72;2.17;;;4.30;99.90;;;;;;5055226;28;20205;-92
2022/02/21 06:21:05;;;;;;;4.13;1.75;;;4.30;99.90;;;;;;5057844;28;20225;-91
2022/02/21 06:23:32;;;;;;;6.80;1.80;;;4.20;99.90;;;;;;5055987;28;20233;-92
2022/02/21 06:25:59;;;;;;;3.63;1.80;;;4.20;99.90;;;;;;5055515;28;20209;-92
2022/02/21 06:28:25;;;;;;;11.43;2.20;;;4.20;99.90;;;;;;5055626;28;20307;-93
2022/02/21 06:30:52;;;;;;;7.70;2.40;;;4.20;99.90;;;;;;5056407;28;20197;-92
2022/02/21 06:33:33;;;;;;;4.80;1.88;;;4.10;99.90;;;;;;5055111;28;20231;-92
2022/02/21 06:36:14;;;;;;;6.40;2.50;;;4.10;99.90;;;;;;5055759;28;20291;-92
2022/02/21 06:41:55;;;;;;;7.72;2.05;;;4.10;99.90;;;;;;5045472;23;20233;-68
2022/02/21 06:44:22;;;;;;;4.03;1.60;;;4.10;99.90;;;;;;5105758;27;20705;-69
2022/02/21 06:46:49;;;;;;;5.50;1.80;;;4.10;99.90;;;;;;5091697;28;20208;-69
2022/02/21 06:49:15;;;;;;;4.68;2.17;;;4.10;99.90;;;;;;5091853;28;20203;-69
2022/02/21 06:51:42;;;;;;;4.32;1.75;;;4.10;99.90;;;;;;5091788;28;20613;-69
2022/02/21 06:54:10;;;;;;;6.10;1.73;;;4.10;99.90;;;;;;5090963;28;20230;-68
2022/02/21 06:56:37;;;;;;;4.65;2.20;;;4.20;99.90;;;;;;5092038;28;20578;-69
2022/02/21 06:59:03;;;;;;;4.32;1.90;;;4.20;99.90;;;;;;5091789;28;20261;-69
2022/02/21 07:01:31;;;;;;;5.85;1.90;;;4.20;99.90;;;;;;5088190;28;20219;-70
2022/02/21 07:03:59;;;;;;;4.68;2.53;;;4.20;99.90;;;;;;5082122;28;20674;-70
2022/02/21 07:06:26;;;;;;;4.32;2.17;;;4.20;99.90;;;;;;5091543;28;20314;-71
2022/02/21 07:08:53;;;;;;;7.38;2.05;;;4.20;99.90;;;;;;5089544;28;20207;-70
2022/02/21 07:11:22;;;;;;;9.80;2.25;;;4.20;99.90;;;;;;5090340;28;20199;-70
2022/02/21 07:13:49;;;;;;;4.40;1.73;;;4.10;99.90;;;;;;5089552;28;20218;-70
2022/02/21 07:16:20;;;;;;;6.20;2.40;;;4.10;99.90;;;;;;5089338;28;20280;-70
2022/02/21 07:18:47;;;;;;;4.43;1.63;;;4.00;99.90;;;;;;5088742;28;20257;-70
2022/02/21 07:21:14;;;;;;;6.03;2.20;;;4.00;99.90;;;;;;5089732;28;20230;-70
2022/02/21 07:23:41;;;;;;;8.20;2.38;;;3.90;99.90;;;;;;5088845;28;20290;-69
2022/02/21 07:26:09;;;;;;;6.65;2.00;;;3.90;99.90;;;;;;5089693;28;20306;-70
2022/02/21 07:28:37;;;;;;;3.30;1.65;;;4.00;99.90;;;;;;5089188;28;20257;-70
2022/02/21 07:31:06;;;;;;;7.13;2.55;;;4.10;99.90;;;;;;5087969;28;20295;-70
2022/02/21 07:33:34;;;;;;;5.70;2.50;;;4.50;99.90;;;;;;5088709;28;20195;-70
2022/02/21 07:36:01;;;;;;;9.48;2.50;;;5.40;99.90;;;;;;5088961;28;20288;-70
2022/02/21 07:38:28;;;;;;;5.20;2.00;;;6.20;99.90;;;;;;5088786;28;20295;-71
2022/02/21 07:40:55;;;;;;;4.40;2.40;;;6.90;99.50;;;;;;5088629;28;20694;-70
2022/02/21 07:43:23;;;;;;;4.90;1.83;;;7.40;98.90;;;;;;5088293;28;20226;-72
2022/02/21 07:45:52;;;;;;;6.00;2.10;;;7.70;98.20;;;;;;5088158;28;20219;-72
2022/02/21 07:48:19;;;;;;;5.80;2.13;;;8.20;97.90;;;;;;5088997;28;20246;-70
2022/02/21 07:50:47;;;;;;;7.45;2.28;;;8.50;96.60;;;;;;5088452;28;20211;-70
2022/02/21 07:53:14;;;;;;;6.72;2.70;;;8.50;96.50;;;;;;5089389;28;20231;-71
2022/02/21 07:55:41;;;;;;;6.40;2.42;;;8.50;96.10;;;;;;5088630;28;20292;-71
2022/02/21 07:58:09;;;;;;;5.70;2.33;;;8.70;96.50;;;;;;5089086;28;20207;-70
2022/02/21 08:00:36;;;;;;;8.75;2.65;;;8.90;95.90;;;;;;5087726;28;20259;-71
2022/02/21 08:03:05;;;;;;;3.63;2.05;;;9.00;95.80;;;;;;5088395;28;20313;-71
2022/02/21 08:05:34;;;;;;;8.80;2.45;;;9.30;95.70;;;;;;5088328;28;20768;-71
2022/02/21 08:08:00;;;;;;;8.00;2.72;;;9.60;95.00;;;;;;5087310;28;20292;-71
2022/02/21 08:10:27;;;;;;;5.00;2.42;;;9.70;95.20;;;;;;5087941;28;20203;-71
2022/02/21 08:12:54;;;;;;;3.90;2.20;;;9.60;95.20;;;;;;5087004;28;20195;-68
2022/02/21 08:15:21;;;;;;;9.50;2.70;;;9.40;95.60;;;;;;5087866;28;20219;-68
2022/02/21 08:17:48;;;;;;;6.88;2.53;;;9.30;95.90;;;;;;5087992;28;20294;-68
2022/02/21 08:20:18;;;;;;;5.10;2.60;;;9.10;95.90;;;;;;5088091;28;20688;-68
2022/02/21 08:22:45;;;;;;;5.03;2.50;;;9.30;96.10;;;;;;5087310;28;20191;-68
2022/02/21 08:25:12;;;;;;;8.55;2.05;;;10.00;95.20;;;;;;5088103;28;20226;-68
2022/02/21 08:27:41;;;;;;;3.42;2.20;;;10.20;93.70;;;;;;5088411;28;20207;-69
2022/02/21 08:30:10;;;;;;;6.47;1.95;;;10.20;93.80;;;;;;5089620;28;20666;-68
2022/02/21 08:32:37;;;;;;;5.43;3.08;;;10.60;93.60;;;;;;5092811;28;20191;-68
2022/02/21 08:35:05;;;;;;;6.18;2.08;;;10.30;93.20;;;;;;5092938;28;20228;-69
2022/02/21 08:37:33;;;;;;;8.15;2.50;;;10.10;93.80;;;;;;5092634;28;20211;-69
2022/02/21 08:39:59;;;;;;;6.72;2.40;;;10.60;93.60;;;;;;5092979;28;20207;-69
2022/02/21 08:42:26;;;;;;;6.40;2.13;;;11.20;92.70;;;;;;5092703;28;20224;-68
2022/02/21 08:44:53;;;;;;;4.43;2.20;;;11.60;92.10;;;;;;5091990;28;20220;-69
2022/02/21 08:47:21;;;;;;;7.45;2.70;;;11.90;92.10;;;;;;5093266;28;20214;-69
2022/02/21 08:49:48;;;;;;;5.10;2.50;;;12.20;91.90;;;;;;5092525;28;20286;-69
2022/02/21 08:52:16;;;;;;;6.47;3.03;;;11.90;91.60;;;;;;5092706;28;20204;-69
2022/02/21 08:54:44;;;;;;;6.97;2.47;;;11.30;92.00;;;;;;5092166;28;20227;-69
2022/02/21 08:57:11;;;;;;;3.33;1.92;;;10.90;92.80;;;;;;5092643;28;20200;-70
2022/02/21 08:59:38;;;;;;;5.70;2.00;;;10.20;93.10;;;;;;5092062;28;20196;-68
2022/02/21 09:02:05;;;;;;;7.53;2.40;;;9.80;94.40;;;;;;5092735;28;20224;-69
2022/02/21 09:04:31;;;;;;;5.65;2.30;;;9.80;94.60;;;;;;5092460;28;20215;-69
2022/02/21 09:06:58;;;;;;;4.63;2.17;;;10.20;94.30;;;;;;5091971;28;20674;-68
2022/02/21 09:09:26;;;;;;;8.40;2.60;;;10.70;93.50;;;;;;5092089;28;20202;-69
2022/02/21 09:11:54;;;;;;;4.93;2.58;;;10.40;93.40;;;;;;5092048;28;20199;-69
2022/02/21 09:14:20;;;;;;;4.72;2.20;;;10.30;94.50;;;;;;5091346;28;20231;-69
2022/02/21 09:16:47;;;;;;;5.13;2.45;;;10.90;93.90;;;;;;5092146;28;20556;-69
2022/02/21 09:19:14;;;;;;;3.38;2.33;;;11.40;93.40;;;;;;5092026;28;20264;-69
2022/02/21 09:21:41;;;;;;;3.30;2.10;;;11.60;93.20;;;;;;5091419;28;20219;-69
2022/02/21 09:24:07;;;;;;;7.57;2.60;;;11.10;93.40;;;;;;5091460;28;20646;-69
2022/02/21 09:26:34;;;;;;;11.10;3.13;;;11.20;93.70;;;;;;5092152;28;20203;-69
2022/02/21 09:29:02;;;;;;;4.72;2.30;;;11.80;93.10;;;;;;5091413;28;20207;-69
2022/02/21 09:31:29;;;;;;;3.05;1.70;;;12.10;92.10;;;;;;5092008;28;20200;-69
2022/02/21 09:33:56;;;;;;;5.53;2.65;;;12.40;91.70;;;;;;5091672;28;20611;-69
2022/02/21 09:36:23;;;;;;;7.53;2.00;;;12.00;92.70;;;;;;5091819;28;20200;-69
2022/02/21 09:38:49;;;;;;;7.95;2.80;;;12.40;91.70;;;;;;5091659;28;20215;-69
2022/02/21 09:41:16;;;;;;;10.05;3.10;;;12.50;91.40;;;;;;5091902;28;20254;-69
2022/02/21 09:43:43;;;;;;;6.13;2.20;;;12.90;91.40;;;;;;5090362;28;20208;-69
2022/02/21 09:46:11;;;;;;;4.57;1.65;;;12.70;90.90;;;;;;5091747;28;20200;-69
2022/02/21 09:48:39;;;;;;;5.43;3.33;;;12.00;92.10;;;;;;5091946;28;20554;-69
2022/02/21 09:51:07;;;;;;;4.72;1.88;;;12.70;91.40;;;;;;5091112;28;20294;-69
2022/02/21 09:53:36;;;;;;;5.78;2.00;;;13.30;91.00;;;;;;5091467;28;20612;-69
2022/02/21 09:56:03;;;;;;;5.38;2.20;;;13.50;90.00;;;;;;5091220;28;20223;-69
2022/02/21 09:58:31;;;;;;;4.93;2.00;;;14.50;88.90;;;;;;5092006;28;20204;-69
2022/02/21 10:00:58;;;;;;;5.60;2.40;;;15.20;87.80;;;;;;5091610;28;20207;-70
2022/02/21 10:03:43;;;;;;;6.13;2.60;;;15.90;84.70;;;;;;5091928;28;20458;-70
2022/02/21 10:06:18;;;;;;;2.27;1.63;;;16.40;83.00;;;;;;5092258;28;20199;-69
2022/02/21 10:08:55;;;;;;;4.75;2.25;;;16.00;83.20;;;;;;5092107;28;20460;-69
2022/02/21 10:11:23;;;;;;;5.25;2.40;;;15.30;83.90;;;;;;5092176;28;20199;-69
2022/02/21 10:14:02;;;;;;;7.10;2.17;;;15.10;84.90;;;;;;5091080;28;20208;-69
2022/02/21 10:16:39;;;;;;;4.83;1.80;;;15.20;84.50;;;;;;5091987;28;20979;-69
2022/02/21 10:19:20;;;;;;;5.30;2.20;;;15.40;84.50;;;;;;5091945;28;20493;-69
2022/02/21 10:22:01;;;;;;;7.00;1.77;;;16.00;83.50;;;;;;5091184;28;20580;-69
2022/02/21 10:24:30;;;;;;;5.57;2.58;;;16.70;81.90;;;;;;5091386;28;20484;-69
2022/02/21 10:27:05;;;;;;;7.73;2.33;;;16.40;80.30;;;;;;5091191;28;20256;-69
2022/02/21 10:29:36;;;;;;;4.60;2.30;;;16.10;79.00;;;;;;5091856;28;20461;-69
2022/02/21 10:32:08;;;;;;;8.70;2.40;;;15.80;80.70;;;;;;5091403;28;20458;-70
2022/02/21 10:34:37;;;;;;;6.00;2.20;;;16.30;79.20;;;;;;5090450;28;20520;-69
2022/02/21 10:37:06;;;;;;;5.07;1.70;;;17.00;78.90;;;;;;5091366;28;20960;-69
2022/02/21 10:39:33;;;;;;;2.83;2.00;;;16.80;77.60;;;;;;5091425;28;20487;-69
2022/02/21 10:42:02;;;;;;;4.70;2.50;;;16.00;77.40;;;;;;5090860;28;20496;-69
2022/02/21 10:44:32;;;;;;;3.55;1.88;;;14.00;79.90;;;;;;5090735;28;20572;-69
2022/02/21 10:47:05;;;;;;;7.95;2.40;;;12.50;83.40;;;;;;5091454;28;20195;-71
2022/02/21 10:49:33;;;;;;;3.10;1.65;;;12.80;84.00;;;;;;5099323;28;20199;-70
2022/02/21 10:52:01;;;;;;;6.90;2.15;;;12.80;83.20;;;;;;5111344;28;20210;-70
2022/02/21 10:54:29;;;;;;;5.35;2.50;;;12.70;85.10;;;;;;5110816;28;20215;-69
2022/02/21 10:56:56;;;;;;;4.38;1.83;;;13.00;82.30;;;;;;5110930;28;20203;-70
2022/02/21 10:59:28;;;;;;;8.65;2.03;;;14.00;82.30;;;;;;5111177;28;20583;-70
2022/02/21 11:01:55;;;;;;;4.30;1.98;;;14.60;80.70;;;;;;5111284;28;20222;-69
2022/02/21 11:04:24;;;;;;;4.03;2.08;;;14.60;77.40;;;;;;5110759;28;20245;-70
2022/02/21 11:06:51;;;;;;;7.10;2.03;;;14.00;78.90;;;;;;5111318;28;20302;-70
2022/02/21 11:09:20;;;;;;;3.97;1.60;;;14.00;80.20;;;;;;5111261;28;20221;-69
2022/02/21 11:11:48;;;;;;;6.45;1.90;;;13.60;78.90;;;;;;5110647;28;20502;-69
2022/02/21 11:14:18;;;;;;;8.88;2.25;;;13.00;80.80;;;;;;5110598;28;20585;-69
2022/02/21 11:16:46;;;;;;;4.88;2.50;;;12.30;82.70;;;;;;5111219;28;20229;-69
2022/02/21 11:19:14;;;;;;;9.52;1.80;;;12.30;83.10;;;;;;5110443;28;20289;-69
2022/02/21 11:21:42;;;;;;;3.10;1.77;;;11.50;84.00;;;;;;5110765;28;20222;-69
2022/02/21 11:24:10;;;;;;;3.38;1.50;;;10.40;87.00;;;;;;5110060;28;20223;-69
2022/02/21 11:26:41;;;;;;;3.95;2.15;;;9.70;90.10;;;;;;5110367;28;20226;-69
2022/02/21 11:29:16;;;;;;;4.25;1.75;;;9.10;90.90;;;;;;5110988;28;20202;-69
2022/02/21 11:31:43;;;;;;;3.72;2.40;;;8.50;91.70;;;;;;5110824;28;20217;-69
2022/02/21 11:34:10;;;;;;;6.38;2.15;;;8.20;92.70;;;;;;5110078;28;20226;-69
2022/02/21 11:36:38;;;;;;;4.47;1.95;;;8.30;92.70;;;;;;5110520;28;20230;-69
2022/02/21 11:39:22;;;;;;;3.45;1.85;;;8.40;91.80;;;;;;5110715;28;20210;-70
2022/02/21 11:42:16;;;;;;;4.28;1.92;;;8.20;92.50;;;;;;5118020;22;20313;-88
2022/02/21 11:44:45;;;;;;;5.15;2.30;;;7.90;93.50;;;;;;5097945;28;20633;-89
2022/02/21 11:47:32;;;;;;;7.38;2.10;;;7.80;94.30;;;;;;5092863;28;20199;-88
2022/02/21 11:50:00;;;;;;;7.13;1.95;;;7.90;94.80;;;;;;5087561;28;20208;-88
2022/02/21 11:52:36;;;;;;;5.50;1.95;;;7.90;94.40;;;;;;5092089;28;20222;-88
2022/02/21 11:55:03;;;;;;;6.07;2.63;;;8.20;94.60;;;;;;5098498;28;20198;-90
2022/02/21 11:57:45;;;;;;;7.13;2.63;;;9.10;93.60;;;;;;5104833;28;20768;-91
2022/02/21 12:00:39;;;;;;;5.38;2.33;;;9.60;92.70;;;;;;5113789;28;20294;-91
2022/02/21 12:03:12;;;;;;;3.45;1.92;;;10.70;91.00;;;;;;5108268;28;20261;-90
2022/02/21 12:05:39;;;;;;;4.93;1.80;;;11.00;88.40;;;;;;5113550;28;20290;-90
2022/02/21 12:08:51;;;;;;;3.65;1.50;;;10.40;88.60;;;;;;5113284;28;20215;-90
2022/02/21 12:11:29;;;;;;;2.95;1.30;;;9.90;88.80;;;;;;5114199;28;20250;-90
2022/02/21 12:14:27;;;;;;;4.05;1.60;;;9.40;86.90;;;;;;5106166;28;20208;-90
2022/02/21 12:17:06;;;;;;;2.80;1.60;;;8.80;88.80;;;;;;5091947;28;20292;-90
2022/02/21 12:19:35;;;;;;;4.95;1.60;;;8.40;88.90;;;;;;5092781;28;20240;-90
2022/02/21 12:22:33;;;;;;;5.35;2.00;;;8.00;89.80;;;;;;5093356;28;20234;-92
2022/02/21 12:25:19;;;;;;;3.53;1.83;;;8.10;89.60;;;;;;5094988;28;20200;-89
2022/02/21 12:28:34;;;;;;;;;;;;;;;;;;;;;
2022/02/21 12:31:43;;;;;;;4.30;1.30;;;7.90;90.70;;;;;;5097327;28;20219;-93
2022/02/21 12:34:19;;;;;;;2.42;1.67;;;8.40;90.00;;;;;;5073313;28;20195;-91
2022/02/21 12:36:48;;;;;;;5.28;2.55;;;8.50;89.20;;;;;;5096436;28;20211;-91
2022/02/21 12:39:17;;;;;;;3.10;1.85;;;8.10;89.80;;;;;;5098985;28;20215;-92
2022/02/21 12:41:44;;;;;;;3.88;1.80;;;7.80;90.80;;;;;;5101158;28;20485;-91
2022/02/21 12:44:12;;;;;;;3.95;1.70;;;7.60;90.80;;;;;;5112056;28;20212;-91
2022/02/21 12:47:00;;;;;;;3.45;1.85;;;7.30;91.50;;;;;;5105554;28;20680;-92
2022/02/21 12:49:31;;;;;;;5.20;1.83;;;7.20;91.90;;;;;;5104264;28;20198;-91
2022/02/21 12:52:21;;;;;;;4.75;2.30;;;7.20;91.70;;;;;;5112366;28;20228;-91
2022/02/21 12:54:56;;;;;;;3.13;1.75;;;7.10;92.20;;;;;;5112075;28;20214;-91
2022/02/21 12:57:24;;;;;;;4.53;2.10;;;7.00;92.60;;;;;;5113506;28;20207;-91
2022/02/21 12:59:52;;;;;;;3.53;1.67;;;7.00;92.80;;;;;;5109099;28;20210;-90
2022/02/21 13:02:22;;;;;;;1.83;1.52;;;6.90;92.90;;;;;;5096174;28;20238;-90
2022/02/21 13:04:50;;;;;;;4.22;1.50;;;6.90;93.20;;;;;;5089752;28;20214;-91
2022/02/21 13:07:17;;;;;;;5.82;2.00;;;6.80;93.60;;;;;;5101693;28;20294;-91
2022/02/21 13:09:45;;;;;;;2.30;1.60;;;6.70;94.00;;;;;;5098780;28;20264;-91
2022/02/21 13:12:16;;;;;;;3.17;1.50;;;6.80;94.30;;;;;;5100514;28;20238;-90